»·PEaware :: FDX4214 KOAK-KLAS

FDX4214 :: KOAK-KLAS

FLIGHT INFORMATION

Flight Status: Arrived
Operator:
Federal Express
More flights by this operator :: More flights under this callsign
Pilot: Anonymous 12254 (12254)
Aircraft: BOEING 767-300
(B763)
More flights by this aircraft type
Origin: KOAK Metro Oakland Intl
United States
Destination: KLAS McCarran Intl
United States
More flights between these airports :: More routes between these airports
Route: +VIKSN Q162 ESSAA BTY SUNST4
File this flight plan on PilotEdge
Remarks:
Altitude:
(Current/Filed)
31,000ft
Speed:
(Current/Filed)
450kts
Departed: 28-Jan-20 01:40 PM
Arrived: 28-Jan-20 02:53 PM
Distance/Time
Traveled:
354nm/1:13
Distance/Time
To Go:
Arrived

Flight Plot

Page will automatically refresh every two minutes.

Flight plan parsing failed; only flown route is shown


Map Options




Map Legend


Flown Route
Filed Route
Departure Airport
Arrival Airport
Navaid (VOR, NDB)
Fix

Horizontal Profiles

Position Reports

Time Latitude Longitude Heading Altitude Ground
Speed
28-Jan-20 12:59 37.717042 -122.219130 227 15ft 0kts
28-Jan-20 13:01 37.717042 -122.219130 227 15ft 0kts
28-Jan-20 13:01 37.717042 -122.219130 227 15ft 0kts
28-Jan-20 13:02 37.717042 -122.219130 227 15ft 0kts
28-Jan-20 13:03 37.717042 -122.219130 227 15ft 0kts
28-Jan-20 13:09 37.717042 -122.219130 227 15ft 0kts
28-Jan-20 13:10 37.717042 -122.219130 227 15ft 0kts
28-Jan-20 13:11 37.717042 -122.219130 227 15ft 0kts
28-Jan-20 13:12 37.717042 -122.219130 227 15ft 0kts
28-Jan-20 13:13 37.717042 -122.219130 227 15ft 0kts
28-Jan-20 13:14 37.717042 -122.219130 227 15ft 0kts
28-Jan-20 13:15 37.717042 -122.219130 227 15ft 0kts
28-Jan-20 13:16 37.717042 -122.219130 227 15ft 0kts
28-Jan-20 13:17 37.717042 -122.219130 227 15ft 0kts
28-Jan-20 13:18 37.717042 -122.219130 227 15ft 0kts
28-Jan-20 13:19 37.717042 -122.219130 227 15ft 0kts
28-Jan-20 13:20 37.717042 -122.219130 227 15ft 0kts
28-Jan-20 13:21 37.717042 -122.219130 227 15ft 0kts
28-Jan-20 13:22 37.717042 -122.219130 227 15ft 0kts
28-Jan-20 13:23 37.717042 -122.219130 227 15ft 0kts
28-Jan-20 13:24 37.717042 -122.219130 227 15ft 0kts
28-Jan-20 13:25 37.717042 -122.219130 227 15ft 0kts
28-Jan-20 13:26 37.717042 -122.219130 227 15ft 0kts
28-Jan-20 13:27 37.717042 -122.219130 227 15ft 0kts
28-Jan-20 13:28 37.717042 -122.219130 227 15ft 0kts
28-Jan-20 13:29 37.717042 -122.219130 227 15ft 0kts
28-Jan-20 13:30 37.716952 -122.219254 227 15ft 3kts
28-Jan-20 13:31 37.715659 -122.220348 151 15ft 5kts
28-Jan-20 13:32 37.714388 -122.220190 224 15ft 6kts
28-Jan-20 13:33 37.713044 -122.221979 226 15ft 8kts
28-Jan-20 13:34 37.711267 -122.223931 221 15ft 9kts
28-Jan-20 13:35 37.709434 -122.222451 130 15ft 10kts
28-Jan-20 13:36 37.707108 -122.218923 130 15ft 16kts
28-Jan-20 13:37 37.704368 -122.214830 130 15ft 13kts
28-Jan-20 13:38 37.702733 -122.213545 168 15ft 9kts
28-Jan-20 13:39 37.715177 -122.234726 309 63ft 198kts
28-Jan-20 13:40 37.756452 -122.296541 307 1452ft 257kts
28-Jan-20 13:41 37.789476 -122.369068 257 3624ft 249kts
28-Jan-20 13:42 37.735735 -122.412166 197 6135ft 260kts
28-Jan-20 13:43 37.666327 -122.430947 196 8524ft 276kts
28-Jan-20 13:44 37.590209 -122.449888 196 10961ft 297kts
28-Jan-20 13:45 37.517231 -122.467164 188 13133ft 317kts
28-Jan-20 13:46 37.448150 -122.411359 107 15546ft 333kts
28-Jan-20 13:47 37.460183 -122.316835 73 17499ft 324kts
28-Jan-20 13:48 37.464744 -122.212599 83 19296ft 342kts
28-Jan-20 13:49 37.464244 -122.111775 84 20962ft 349kts
28-Jan-20 13:50 37.463174 -121.997201 83 22814ft 351kts
28-Jan-20 13:51 37.462040 -121.887518 82 24152ft 363kts
28-Jan-20 13:52 37.460683 -121.769432 82 25550ft 373kts
28-Jan-20 13:53 37.459230 -121.653531 82 26891ft 381kts
28-Jan-20 13:54 37.457660 -121.537477 81 28211ft 384kts
28-Jan-20 13:55 37.455824 -121.411551 81 29637ft 383kts
28-Jan-20 13:56 37.454054 -121.297932 81 30909ft 377kts
28-Jan-20 13:57 37.452418 -121.193795 81 31413ft 389kts
28-Jan-20 13:58 37.450472 -121.077834 85 31412ft 421kts
28-Jan-20 13:59 37.447858 -120.937384 89 31412ft 459kts
28-Jan-20 14:00 37.445082 -120.799586 88 31402ft 461kts
28-Jan-20 14:01 37.442152 -120.659399 88 31396ft 461kts
28-Jan-20 14:02 37.439129 -120.521551 88 31396ft 463kts
28-Jan-20 14:03 37.436181 -120.393494 89 31398ft 462kts
28-Jan-20 14:04 37.433060 -120.264169 89 31396ft 462kts
28-Jan-20 14:05 37.429913 -120.139540 89 31393ft 462kts
28-Jan-20 14:06 37.426240 -120.000375 89 31400ft 462kts
28-Jan-20 14:07 37.422468 -119.862931 89 31404ft 461kts
28-Jan-20 14:08 37.418299 -119.717695 89 31408ft 462kts
28-Jan-20 14:09 37.413993 -119.573542 89 31396ft 462kts
28-Jan-20 14:10 37.409369 -119.425539 89 31330ft 469kts
28-Jan-20 14:11 37.404857 -119.285587 90 31258ft 471kts
28-Jan-20 14:12 37.399890 -119.137733 90 31238ft 470kts
28-Jan-20 14:13 37.394107 -118.971365 91 31247ft 474kts
28-Jan-20 14:14 37.387680 -118.793852 94 31247ft 477kts
28-Jan-20 14:15 37.380838 -118.614456 94 31212ft 476kts
28-Jan-20 14:16 37.374132 -118.444167 94 31195ft 476kts
28-Jan-20 14:17 37.367674 -118.285566 95 31187ft 476kts
28-Jan-20 14:18 37.360924 -118.125286 95 31189ft 476kts
28-Jan-20 14:19 37.352859 -117.940169 95 31192ft 476kts
28-Jan-20 14:20 37.339130 -117.761649 98 31191ft 475kts
28-Jan-20 14:21 37.323819 -117.590519 98 31198ft 476kts
28-Jan-20 14:22 37.309302 -117.430801 98 31213ft 441kts
28-Jan-20 14:23 37.272697 -117.272269 130 31233ft 429kts
28-Jan-20 14:24 37.190251 -117.133009 133 31225ft 428kts
28-Jan-20 14:25 37.111868 -117.004527 134 31224ft 428kts
28-Jan-20 14:26 37.019672 -116.900628 157 31216ft 388kts
28-Jan-20 14:27 36.918441 -116.829181 158 31214ft 370kts
28-Jan-20 14:28 36.831187 -116.768779 157 30659ft 375kts
28-Jan-20 14:29 36.756326 -116.684150 136 29023ft 380kts
28-Jan-20 14:30 36.686724 -116.585166 135 27150ft 378kts
28-Jan-20 14:31 36.612883 -116.480265 135 25154ft 376kts
28-Jan-20 14:32 36.544379 -116.383203 134 23297ft 374kts
28-Jan-20 14:33 36.473681 -116.283318 134 21513ft 367kts
28-Jan-20 14:34 36.397721 -116.176341 134 20090ft 348kts
28-Jan-20 14:35 36.327452 -116.077690 133 18533ft 339kts
28-Jan-20 14:36 36.266488 -115.992338 133 17148ft 331kts
28-Jan-20 14:37 36.206224 -115.907559 126 16005ft 314kts
28-Jan-20 14:38 36.171895 -115.810637 111 15081ft 301kts
28-Jan-20 14:39 36.140967 -115.714640 111 14077ft 295kts
28-Jan-20 14:40 36.110680 -115.620786 111 13075ft 288kts
28-Jan-20 14:41 36.081131 -115.529436 111 12077ft 282kts
28-Jan-20 14:42 36.052515 -115.441264 111 11098ft 278kts
28-Jan-20 14:43 36.029595 -115.353051 93 10851ft 273kts
28-Jan-20 14:44 36.023021 -115.263759 94 9925ft 261kts
28-Jan-20 14:45 36.016911 -115.178476 93 9031ft 250kts
28-Jan-20 14:46 36.011229 -115.094918 92 8039ft 245kts
28-Jan-20 14:47 36.006131 -115.010706 91 6784ft 252kts
28-Jan-20 14:48 36.011620 -114.927553 38 5716ft 239kts
28-Jan-20 14:49 36.061480 -114.961932 302 4595ft 254kts
28-Jan-20 14:50 36.074357 -115.038840 270 3551ft 216kts
28-Jan-20 14:51 36.073609 -115.109404 270 2334ft 183kts
28-Jan-20 14:52 36.074591 -115.150298 301 2123ft 28kts
28-Jan-20 14:53 36.074761 -115.150604 307 2124ft 1kts
28-Jan-20 14:54 36.078057 -115.151555 87 2121ft 15kts
28-Jan-20 14:55 36.077650 -115.145011 95 2099ft 22kts
28-Jan-20 14:56 36.077551 -115.136391 88 2072ft 28kts
28-Jan-20 14:58 36.077556 -115.126981 81 2048ft 15kts
28-Jan-20 14:59 36.080444 -115.126316 23 2041ft 2kts
28-Jan-20 15:00 36.080668 -115.125729 83 2039ft 0kts
28-Jan-20 15:01 36.080668 -115.125728 83 2039ft 0kts
28-Jan-20 15:02 36.080668 -115.125728 83 2039ft 0kts
28-Jan-20 15:03 36.080668 -115.125728 83 2039ft 0kts

Navigation Log

Ident Type
Flight plan parsing failed, navigation log unavailable